sensor_id;sensor_type;location;lat;lon;timestamp;temperature;humidity
52073;DHT22;38074;51.232;6.826;2023-04-25T00:04:45;24.20;38.90
52073;DHT22;38074;51.232;6.826;2023-04-25T00:12:01;24.20;38.80
52073;DHT22;38074;51.232;6.826;2023-04-25T00:19:17;24.20;38.80
52073;DHT22;38074;51.232;6.826;2023-04-25T00:26:33;24.20;38.80
52073;DHT22;38074;51.232;6.826;2023-04-25T00:33:49;24.20;38.80
52073;DHT22;38074;51.232;6.826;2023-04-25T00:41:06;24.20;38.70
52073;DHT22;38074;51.232;6.826;2023-04-25T00:48:22;24.20;38.60
52073;DHT22;38074;51.232;6.826;2023-04-25T00:55:38;24.20;38.60
52073;DHT22;38074;51.232;6.826;2023-04-25T01:02:54;24.20;38.60
52073;DHT22;38074;51.232;6.826;2023-04-25T01:10:09;24.20;38.60
52073;DHT22;38074;51.232;6.826;2023-04-25T01:17:25;24.20;38.50
52073;DHT22;38074;51.232;6.826;2023-04-25T01:24:40;24.20;38.50
52073;DHT22;38074;51.232;6.826;2023-04-25T01:31:57;24.20;38.50
52073;DHT22;38074;51.232;6.826;2023-04-25T01:39:13;24.20;38.50
52073;DHT22;38074;51.232;6.826;2023-04-25T01:46:29;24.20;38.20
52073;DHT22;38074;51.232;6.826;2023-04-25T01:53:45;24.20;38.30
52073;DHT22;38074;51.232;6.826;2023-04-25T02:01:01;24.10;38.30
52073;DHT22;38074;51.232;6.826;2023-04-25T02:08:17;24.20;38.30
52073;DHT22;38074;51.232;6.826;2023-04-25T02:15:33;24.20;38.30
52073;DHT22;38074;51.232;6.826;2023-04-25T02:22:48;24.10;38.20
52073;DHT22;38074;51.232;6.826;2023-04-25T02:30:05;24.10;38.20
52073;DHT22;38074;51.232;6.826;2023-04-25T02:37:21;24.10;38.20
52073;DHT22;38074;51.232;6.826;2023-04-25T02:44:37;24.20;38.10
52073;DHT22;38074;51.232;6.826;2023-04-25T02:51:52;24.10;38.10
52073;DHT22;38074;51.232;6.826;2023-04-25T02:59:08;24.20;38.10
52073;DHT22;38074;51.232;6.826;2023-04-25T03:06:23;24.10;38.10
52073;DHT22;38074;51.232;6.826;2023-04-25T03:13:39;24.10;38.00
52073;DHT22;38074;51.232;6.826;2023-04-25T03:20:54;24.10;38.10
52073;DHT22;38074;51.232;6.826;2023-04-25T03:28:10;24.10;38.00
52073;DHT22;38074;51.232;6.826;2023-04-25T03:35:25;24.10;38.00
52073;DHT22;38074;51.232;6.826;2023-04-25T03:42:41;24.10;38.00
52073;DHT22;38074;51.232;6.826;2023-04-25T03:49:56;24.10;38.00
52073;DHT22;38074;51.232;6.826;2023-04-25T03:57:12;24.20;38.00
52073;DHT22;38074;51.232;6.826;2023-04-25T04:04:27;24.20;38.00
52073;DHT22;38074;51.232;6.826;2023-04-25T04:11:43;24.10;37.90
52073;DHT22;38074;51.232;6.826;2023-04-25T04:18:58;24.10;37.90
52073;DHT22;38074;51.232;6.826;2023-04-25T04:26:14;24.10;37.90
52073;DHT22;38074;51.232;6.826;2023-04-25T04:33:31;24.10;37.90
52073;DHT22;38074;51.232;6.826;2023-04-25T04:40:47;24.10;37.90
52073;DHT22;38074;51.232;6.826;2023-04-25T04:48:04;24.10;37.90
52073;DHT22;38074;51.232;6.826;2023-04-25T04:55:20;24.10;37.80
52073;DHT22;38074;51.232;6.826;2023-04-25T05:02:40;24.20;37.80
52073;DHT22;38074;51.232;6.826;2023-04-25T05:09:55;24.10;37.80
52073;DHT22;38074;51.232;6.826;2023-04-25T05:17:11;24.10;37.80
52073;DHT22;38074;51.232;6.826;2023-04-25T05:24:26;24.10;38.40
52073;DHT22;38074;51.232;6.826;2023-04-25T05:31:42;24.10;37.70
52073;DHT22;38074;51.232;6.826;2023-04-25T05:38:57;24.10;37.70
52073;DHT22;38074;51.232;6.826;2023-04-25T05:46:13;24.10;37.80
52073;DHT22;38074;51.232;6.826;2023-04-25T05:53:29;24.10;37.80
52073;DHT22;38074;51.232;6.826;2023-04-25T06:00:45;24.20;38.00
52073;DHT22;38074;51.232;6.826;2023-04-25T06:08:01;24.20;38.80
52073;DHT22;38074;51.232;6.826;2023-04-25T06:15:17;24.30;39.30
52073;DHT22;38074;51.232;6.826;2023-04-25T06:22:32;24.30;39.60
52073;DHT22;38074;51.232;6.826;2023-04-25T06:29:48;24.30;39.80
52073;DHT22;38074;51.232;6.826;2023-04-25T06:37:03;24.40;40.00
52073;DHT22;38074;51.232;6.826;2023-04-25T06:44:19;24.30;40.10
52073;DHT22;38074;51.232;6.826;2023-04-25T06:51:34;24.40;40.30
52073;DHT22;38074;51.232;6.826;2023-04-25T06:58:50;24.40;40.50
52073;DHT22;38074;51.232;6.826;2023-04-25T07:06:06;24.50;40.70
52073;DHT22;38074;51.232;6.826;2023-04-25T07:13:21;24.50;40.60
52073;DHT22;38074;51.232;6.826;2023-04-25T07:20:37;24.50;40.80
52073;DHT22;38074;51.232;6.826;2023-04-25T07:27:52;24.60;40.60
52073;DHT22;38074;51.232;6.826;2023-04-25T07:35:08;24.60;40.60
52073;DHT22;38074;51.232;6.826;2023-04-25T07:42:24;24.60;40.60
52073;DHT22;38074;51.232;6.826;2023-04-25T07:49:39;24.70;40.60
52073;DHT22;38074;51.232;6.826;2023-04-25T07:56:55;24.70;40.60
52073;DHT22;38074;51.232;6.826;2023-04-25T08:04:11;24.70;40.50
52073;DHT22;38074;51.232;6.826;2023-04-25T08:11:26;24.70;40.50
52073;DHT22;38074;51.232;6.826;2023-04-25T08:18:42;24.80;40.40
52073;DHT22;38074;51.232;6.826;2023-04-25T08:25:57;24.70;40.40
52073;DHT22;38074;51.232;6.826;2023-04-25T08:33:13;24.80;40.30
52073;DHT22;38074;51.232;6.826;2023-04-25T08:40:29;24.80;40.30
52073;DHT22;38074;51.232;6.826;2023-04-25T08:47:45;24.80;40.30
52073;DHT22;38074;51.232;6.826;2023-04-25T08:55:05;24.80;40.30
52073;DHT22;38074;51.232;6.826;2023-04-25T09:02:22;24.80;40.20
52073;DHT22;38074;51.232;6.826;2023-04-25T09:09:39;24.80;40.20
52073;DHT22;38074;51.232;6.826;2023-04-25T09:24:19;24.80;40.10
52073;DHT22;38074;51.232;6.826;2023-04-25T09:31:44;24.90;40.10
52073;DHT22;38074;51.232;6.826;2023-04-25T09:39:00;24.80;40.00
52073;DHT22;38074;51.232;6.826;2023-04-25T09:46:17;24.80;40.00
52073;DHT22;38074;51.232;6.826;2023-04-25T09:53:35;24.90;39.90
52073;DHT22;38074;51.232;6.826;2023-04-25T10:00:51;24.80;39.80
52073;DHT22;38074;51.232;6.826;2023-04-25T10:08:07;24.80;39.80
52073;DHT22;38074;51.232;6.826;2023-04-25T10:15:24;24.80;39.70
52073;DHT22;38074;51.232;6.826;2023-04-25T10:22:42;24.80;39.70
52073;DHT22;38074;51.232;6.826;2023-04-25T10:30:07;24.80;39.60
52073;DHT22;38074;51.232;6.826;2023-04-25T10:37:25;24.90;39.70
52073;DHT22;38074;51.232;6.826;2023-04-25T10:45:06;24.70;38.90
52073;DHT22;38074;51.232;6.826;2023-04-25T10:52:28;24.60;38.40
52073;DHT22;38074;51.232;6.826;2023-04-25T10:59:45;24.50;38.50
52073;DHT22;38074;51.232;6.826;2023-04-25T11:14:25;24.50;38.70
52073;DHT22;38074;51.232;6.826;2023-04-25T11:21:40;24.50;38.80
52073;DHT22;38074;51.232;6.826;2023-04-25T11:28:59;24.50;39.30
52073;DHT22;38074;51.232;6.826;2023-04-25T11:36:18;24.50;38.30
52073;DHT22;38074;51.232;6.826;2023-04-25T11:43:34;24.50;38.10
52073;DHT22;38074;51.232;6.826;2023-04-25T11:50:49;24.50;37.70
52073;DHT22;38074;51.232;6.826;2023-04-25T11:58:05;24.50;37.80
52073;DHT22;38074;51.232;6.826;2023-04-25T12:05:25;24.50;37.80
52073;DHT22;38074;51.232;6.826;2023-04-25T12:12:42;24.50;38.10
52073;DHT22;38074;51.232;6.826;2023-04-25T12:19:58;24.70;38.30
52073;DHT22;38074;51.232;6.826;2023-04-25T12:27:15;24.70;38.30
52073;DHT22;38074;51.232;6.826;2023-04-25T12:34:35;24.70;38.40
52073;DHT22;38074;51.232;6.826;2023-04-25T12:41:51;24.80;38.40
52073;DHT22;38074;51.232;6.826;2023-04-25T12:49:09;24.80;38.30
52073;DHT22;38074;51.232;6.826;2023-04-25T12:56:28;24.70;38.30
52073;DHT22;38074;51.232;6.826;2023-04-25T13:03:44;24.80;38.30
52073;DHT22;38074;51.232;6.826;2023-04-25T13:11:00;24.80;38.30
52073;DHT22;38074;51.232;6.826;2023-04-25T13:18:15;24.80;38.30
52073;DHT22;38074;51.232;6.826;2023-04-25T13:25:31;24.80;38.30
52073;DHT22;38074;51.232;6.826;2023-04-25T13:32:46;24.80;38.50
52073;DHT22;38074;51.232;6.826;2023-04-25T13:40:04;24.90;37.80
52073;DHT22;38074;51.232;6.826;2023-04-25T13:47:20;24.90;37.90
52073;DHT22;38074;51.232;6.826;2023-04-25T13:54:35;24.80;37.90
52073;DHT22;38074;51.232;6.826;2023-04-25T14:01:51;24.80;38.00
52073;DHT22;38074;51.232;6.826;2023-04-25T14:09:07;24.80;38.00
52073;DHT22;38074;51.232;6.826;2023-04-25T14:16:25;24.80;38.00
52073;DHT22;38074;51.232;6.826;2023-04-25T14:23:41;24.80;38.00
52073;DHT22;38074;51.232;6.826;2023-04-25T14:30:56;24.70;38.00
52073;DHT22;38074;51.232;6.826;2023-04-25T14:38:12;24.70;38.10
52073;DHT22;38074;51.232;6.826;2023-04-25T14:45:27;24.60;38.00
52073;DHT22;38074;51.232;6.826;2023-04-25T14:52:43;24.60;38.00
52073;DHT22;38074;51.232;6.826;2023-04-25T15:00:00;24.60;38.10
52073;DHT22;38074;51.232;6.826;2023-04-25T15:07:17;24.60;38.10
52073;DHT22;38074;51.232;6.826;2023-04-25T15:14:33;24.60;38.00
52073;DHT22;38074;51.232;6.826;2023-04-25T15:21:49;24.60;38.00
52073;DHT22;38074;51.232;6.826;2023-04-25T15:29:05;24.60;38.10
52073;DHT22;38074;51.232;6.826;2023-04-25T15:36:20;24.60;38.10
52073;DHT22;38074;51.232;6.826;2023-04-25T15:43:36;24.60;38.20
52073;DHT22;38074;51.232;6.826;2023-04-25T15:50:53;24.70;38.20
52073;DHT22;38074;51.232;6.826;2023-04-25T15:58:08;24.70;38.10
52073;DHT22;38074;51.232;6.826;2023-04-25T16:05:24;24.70;38.10
52073;DHT22;38074;51.232;6.826;2023-04-25T16:12:39;24.80;38.10
52073;DHT22;38074;51.232;6.826;2023-04-25T16:19:55;24.80;38.20
52073;DHT22;38074;51.232;6.826;2023-04-25T16:27:11;24.80;38.10
52073;DHT22;38074;51.232;6.826;2023-04-25T16:34:26;24.80;38.00
52073;DHT22;38074;51.232;6.826;2023-04-25T16:41:42;24.80;38.10
52073;DHT22;38074;51.232;6.826;2023-04-25T16:48:57;24.70;37.90
52073;DHT22;38074;51.232;6.826;2023-04-25T16:56:13;24.60;37.90
52073;DHT22;38074;51.232;6.826;2023-04-25T17:03:29;24.60;37.90
52073;DHT22;38074;51.232;6.826;2023-04-25T17:10:44;24.60;37.90
52073;DHT22;38074;51.232;6.826;2023-04-25T17:18:00;24.50;37.90
52073;DHT22;38074;51.232;6.826;2023-04-25T17:25:15;24.50;38.00
52073;DHT22;38074;51.232;6.826;2023-04-25T17:32:31;24.50;37.90
52073;DHT22;38074;51.232;6.826;2023-04-25T17:39:46;24.40;37.70
52073;DHT22;38074;51.232;6.826;2023-04-25T17:47:02;24.40;37.70
52073;DHT22;38074;51.232;6.826;2023-04-25T17:54:18;24.40;37.60
52073;DHT22;38074;51.232;6.826;2023-04-25T18:01:36;24.40;37.50
52073;DHT22;38074;51.232;6.826;2023-04-25T18:08:52;24.40;37.50
52073;DHT22;38074;51.232;6.826;2023-04-25T18:16:07;24.30;37.30
52073;DHT22;38074;51.232;6.826;2023-04-25T18:23:23;24.30;37.30
52073;DHT22;38074;51.232;6.826;2023-04-25T18:30:38;24.30;37.00
52073;DHT22;38074;51.232;6.826;2023-04-25T18:37:54;24.30;37.30
52073;DHT22;38074;51.232;6.826;2023-04-25T18:45:10;24.30;37.20
52073;DHT22;38074;51.232;6.826;2023-04-25T18:52:26;24.30;37.20
52073;DHT22;38074;51.232;6.826;2023-04-25T18:59:43;24.30;37.20
52073;DHT22;38074;51.232;6.826;2023-04-25T19:07:00;24.30;37.10
52073;DHT22;38074;51.232;6.826;2023-04-25T19:14:19;24.30;37.00
52073;DHT22;38074;51.232;6.826;2023-04-25T19:21:35;24.20;37.00
52073;DHT22;38074;51.232;6.826;2023-04-25T19:29:08;24.20;37.00
52073;DHT22;38074;51.232;6.826;2023-04-25T19:36:24;24.20;37.00
52073;DHT22;38074;51.232;6.826;2023-04-25T19:43:39;24.30;37.00
52073;DHT22;38074;51.232;6.826;2023-04-25T19:50:55;24.20;36.90
52073;DHT22;38074;51.232;6.826;2023-04-25T19:58:10;24.20;36.90
52073;DHT22;38074;51.232;6.826;2023-04-25T20:05:26;24.20;36.80
52073;DHT22;38074;51.232;6.826;2023-04-25T20:12:42;24.20;36.80
52073;DHT22;38074;51.232;6.826;2023-04-25T20:19:58;24.20;36.80
52073;DHT22;38074;51.232;6.826;2023-04-25T20:27:14;24.20;36.60
52073;DHT22;38074;51.232;6.826;2023-04-25T20:34:29;24.20;36.60
52073;DHT22;38074;51.232;6.826;2023-04-25T20:41:46;24.20;36.60
52073;DHT22;38074;51.232;6.826;2023-04-25T20:49:01;24.20;36.60
52073;DHT22;38074;51.232;6.826;2023-04-25T20:56:19;24.20;36.70
52073;DHT22;38074;51.232;6.826;2023-04-25T21:03:35;24.20;36.60
52073;DHT22;38074;51.232;6.826;2023-04-25T21:10:51;24.20;36.60
52073;DHT22;38074;51.232;6.826;2023-04-25T21:18:07;24.20;36.70
52073;DHT22;38074;51.232;6.826;2023-04-25T21:25:24;24.20;36.80
52073;DHT22;38074;51.232;6.826;2023-04-25T21:32:44;24.20;36.90
52073;DHT22;38074;51.232;6.826;2023-04-25T21:40:00;24.20;37.00
52073;DHT22;38074;51.232;6.826;2023-04-25T21:47:16;24.20;37.00
52073;DHT22;38074;51.232;6.826;2023-04-25T21:54:32;24.20;37.20
52073;DHT22;38074;51.232;6.826;2023-04-25T22:01:48;24.20;37.80
52073;DHT22;38074;51.232;6.826;2023-04-25T22:09:04;24.20;37.20
52073;DHT22;38074;51.232;6.826;2023-04-25T22:16:19;24.20;37.30
52073;DHT22;38074;51.232;6.826;2023-04-25T22:23:35;24.20;37.40
52073;DHT22;38074;51.232;6.826;2023-04-25T22:30:51;24.20;37.40
52073;DHT22;38074;51.232;6.826;2023-04-25T22:38:07;24.20;37.50
52073;DHT22;38074;51.232;6.826;2023-04-25T22:45:22;24.20;37.60
52073;DHT22;38074;51.232;6.826;2023-04-25T22:52:38;24.20;37.70
52073;DHT22;38074;51.232;6.826;2023-04-25T22:59:54;24.20;37.60
52073;DHT22;38074;51.232;6.826;2023-04-25T23:07:10;24.20;37.70
52073;DHT22;38074;51.232;6.826;2023-04-25T23:14:27;24.20;37.80
52073;DHT22;38074;51.232;6.826;2023-04-25T23:21:43;24.20;37.80
52073;DHT22;38074;51.232;6.826;2023-04-25T23:28:58;24.20;37.90
52073;DHT22;38074;51.232;6.826;2023-04-25T23:36:18;24.10;37.90
52073;DHT22;38074;51.232;6.826;2023-04-25T23:43:35;24.20;38.00
52073;DHT22;38074;51.232;6.826;2023-04-25T23:50:51;24.10;37.90
52073;DHT22;38074;51.232;6.826;2023-04-25T23:58:06;24.10;37.90
